sensor_id;sensor_type;location;lat;lon;timestamp;pressure;altitude;pressure_sealevel;temperature;humidity
52735;BME280;38631;47.572;10.704;2024-01-07T00:01:57;91600.53;;;0.62;100.00
52735;BME280;38631;47.572;10.704;2024-01-07T00:04:23;91615.22;;;0.58;100.00
52735;BME280;38631;47.572;10.704;2024-01-07T00:06:48;91607.38;;;0.58;100.00
52735;BME280;38631;47.572;10.704;2024-01-07T00:09:13;91605.28;;;0.55;100.00
52735;BME280;38631;47.572;10.704;2024-01-07T00:11:40;91602.16;;;0.58;100.00
52735;BME280;38631;47.572;10.704;2024-01-07T00:14:05;91610.50;;;0.60;100.00
52735;BME280;38631;47.572;10.704;2024-01-07T00:19:33;91606.56;;;0.63;100.00
52735;BME280;38631;47.572;10.704;2024-01-07T00:22:01;91611.00;;;0.57;100.00
52735;BME280;38631;47.572;10.704;2024-01-07T00:24:26;91617.81;;;0.58;100.00
52735;BME280;38631;47.572;10.704;2024-01-07T00:26:54;91611.28;;;0.56;100.00
52735;BME280;38631;47.572;10.704;2024-01-07T00:29:19;91613.91;;;0.56;100.00
52735;BME280;38631;47.572;10.704;2024-01-07T00:31:45;91610.53;;;0.55;100.00
52735;BME280;38631;47.572;10.704;2024-01-07T00:34:10;91603.50;;;0.46;100.00
52735;BME280;38631;47.572;10.704;2024-01-07T00:36:35;91606.88;;;0.51;100.00
52735;BME280;38631;47.572;10.704;2024-01-07T00:39:01;91602.91;;;0.59;100.00
52735;BME280;38631;47.572;10.704;2024-01-07T00:41:26;91609.50;;;0.46;100.00
52735;BME280;38631;47.572;10.704;2024-01-07T00:54:19;91604.28;;;0.41;100.00
52735;BME280;38631;47.572;10.704;2024-01-07T00:56:45;91622.78;;;0.55;100.00
52735;BME280;38631;47.572;10.704;2024-01-07T00:59:10;91609.47;;;0.51;100.00
52735;BME280;38631;47.572;10.704;2024-01-07T01:01:36;91611.84;;;0.42;100.00
52735;BME280;38631;47.572;10.704;2024-01-07T01:04:01;91625.16;;;0.51;100.00
52735;BME280;38631;47.572;10.704;2024-01-07T01:06:27;91616.28;;;0.42;100.00
52735;BME280;38631;47.572;10.704;2024-01-07T01:08:52;91611.34;;;0.35;100.00
52735;BME280;38631;47.572;10.704;2024-01-07T01:11:18;91612.38;;;0.39;100.00
52735;BME280;38631;47.572;10.704;2024-01-07T01:13:44;91614.44;;;0.48;100.00
52735;BME280;38631;47.572;10.704;2024-01-07T01:16:09;91611.06;;;0.37;100.00
52735;BME280;38631;47.572;10.704;2024-01-07T01:18:35;91620.47;;;0.48;100.00
52735;BME280;38631;47.572;10.704;2024-01-07T01:21:00;91614.19;;;0.44;100.00
52735;BME280;38631;47.572;10.704;2024-01-07T01:23:25;91616.81;;;0.44;100.00
52735;BME280;38631;47.572;10.704;2024-01-07T01:25:51;91628.00;;;0.55;100.00
52735;BME280;38631;47.572;10.704;2024-01-07T01:28:18;91626.97;;;0.56;100.00
52735;BME280;38631;47.572;10.704;2024-01-07T01:30:43;91626.19;;;0.45;100.00
52735;BME280;38631;47.572;10.704;2024-01-07T01:33:09;91636.91;;;0.54;100.00
52735;BME280;38631;47.572;10.704;2024-01-07T01:35:34;91626.47;;;0.49;100.00
52735;BME280;38631;47.572;10.704;2024-01-07T01:37:59;91628.00;;;0.55;100.00
52735;BME280;38631;47.572;10.704;2024-01-07T01:40:25;91622.00;;;0.49;100.00
52735;BME280;38631;47.572;10.704;2024-01-07T01:42:50;91625.19;;;0.41;100.00
52735;BME280;38631;47.572;10.704;2024-01-07T01:47:57;91629.34;;;0.42;100.00
52735;BME280;38631;47.572;10.704;2024-01-07T01:50:24;91625.44;;;0.39;100.00
52735;BME280;38631;47.572;10.704;2024-01-07T01:52:51;91634.03;;;0.45;100.00
52735;BME280;38631;47.572;10.704;2024-01-07T01:55:18;91627.25;;;0.49;100.00
52735;BME280;38631;47.572;10.704;2024-01-07T01:57:45;91625.72;;;0.38;100.00
52735;BME280;38631;47.572;10.704;2024-01-07T02:00:12;91621.81;;;0.35;100.00
52735;BME280;38631;47.572;10.704;2024-01-07T02:02:38;91627.50;;;0.53;100.00
52735;BME280;38631;47.572;10.704;2024-01-07T02:05:04;91631.44;;;0.50;100.00
52735;BME280;38631;47.572;10.704;2024-01-07T02:07:30;91632.47;;;0.44;100.00
52735;BME280;38631;47.572;10.704;2024-01-07T02:09:56;91624.41;;;0.40;100.00
52735;BME280;38631;47.572;10.704;2024-01-07T02:12:22;91620.75;;;0.31;100.00
52735;BME280;38631;47.572;10.704;2024-01-07T02:14:47;91619.72;;;0.22;100.00
52735;BME280;38631;47.572;10.704;2024-01-07T02:17:15;91629.34;;;0.42;100.00
52735;BME280;38631;47.572;10.704;2024-01-07T02:19:40;91622.03;;;0.44;100.00
52735;BME280;38631;47.572;10.704;2024-01-07T02:22:07;91617.63;;;0.29;100.00
52735;BME280;38631;47.572;10.704;2024-01-07T02:24:32;91623.09;;;0.38;100.00
52735;BME280;38631;47.572;10.704;2024-01-07T02:27:27;91631.41;;;0.45;100.00
52735;BME280;38631;47.572;10.704;2024-01-07T02:29:52;91631.41;;;0.55;100.00
52735;BME280;38631;47.572;10.704;2024-01-07T02:32:18;91634.03;;;0.50;100.00
52735;BME280;38631;47.572;10.704;2024-01-07T02:34:43;91621.25;;;0.43;100.00
52735;BME280;38631;47.572;10.704;2024-01-07T02:37:09;91631.69;;;0.49;100.00
52735;BME280;38631;47.572;10.704;2024-01-07T02:39:34;91614.47;;;0.37;100.00
52735;BME280;38631;47.572;10.704;2024-01-07T02:42:00;91623.59;;;0.45;100.00
52735;BME280;38631;47.572;10.704;2024-01-07T02:44:25;91623.09;;;0.38;100.00
52735;BME280;38631;47.572;10.704;2024-01-07T02:46:51;91624.09;;;0.47;100.00
52735;BME280;38631;47.572;10.704;2024-01-07T02:49:16;91633.53;;;0.43;100.00
52735;BME280;38631;47.572;10.704;2024-01-07T02:51:41;91625.41;;;0.45;100.00
52735;BME280;38631;47.572;10.704;2024-01-07T02:54:27;91616.06;;;0.33;100.00
52735;BME280;38631;47.572;10.704;2024-01-07T02:56:53;91625.72;;;0.38;100.00
52735;BME280;38631;47.572;10.704;2024-01-07T02:59:19;91618.91;;;0.37;100.00
52735;BME280;38631;47.572;10.704;2024-01-07T03:01:44;91624.13;;;0.37;100.00
52735;BME280;38631;47.572;10.704;2024-01-07T03:04:11;91623.88;;;0.43;100.00
52735;BME280;38631;47.572;10.704;2024-01-07T03:06:37;91614.50;;;0.27;100.00
52735;BME280;38631;47.572;10.704;2024-01-07T03:09:03;91626.22;;;0.50;100.00
52735;BME280;38631;47.572;10.704;2024-01-07T03:11:30;91616.25;;;0.52;100.00
52735;BME280;38631;47.572;10.704;2024-01-07T03:13:56;91627.25;;;0.49;100.00
52735;BME280;38631;47.572;10.704;2024-01-07T03:16:25;91614.44;;;0.48;100.00
52735;BME280;38631;47.572;10.704;2024-01-07T03:18:51;91623.28;;;0.57;100.00
52735;BME280;38631;47.572;10.704;2024-01-07T03:21:20;91615.28;;;0.38;100.00
52735;BME280;38631;47.572;10.704;2024-01-07T03:24:24;91622.28;;;0.42;100.00
52735;BME280;38631;47.572;10.704;2024-01-07T03:26:49;91625.44;;;0.39;100.00
52735;BME280;38631;47.572;10.704;2024-01-07T03:29:35;91623.31;;;0.47;100.00
52735;BME280;38631;47.572;10.704;2024-01-07T03:32:01;91619.94;;;0.51;100.00
52735;BME280;38631;47.572;10.704;2024-01-07T03:34:26;91624.09;;;0.47;100.00
52735;BME280;38631;47.572;10.704;2024-01-07T03:36:52;91625.41;;;0.45;100.00
52735;BME280;38631;47.572;10.704;2024-01-07T03:39:17;91627.78;;;0.46;100.00
52735;BME280;38631;47.572;10.704;2024-01-07T03:41:42;91629.06;;;0.54;100.00
52735;BME280;38631;47.572;10.704;2024-01-07T03:44:08;91624.88;;;0.48;100.00
52735;BME280;38631;47.572;10.704;2024-01-07T03:46:33;91621.78;;;0.46;100.00
52735;BME280;38631;47.572;10.704;2024-01-07T03:48:59;91624.09;;;0.47;100.00
52735;BME280;38631;47.572;10.704;2024-01-07T03:51:24;91621.50;;;0.47;100.00
52735;BME280;38631;47.572;10.704;2024-01-07T03:53:49;91619.19;;;0.40;100.00
52735;BME280;38631;47.572;10.704;2024-01-07T03:56:15;91628.56;;;0.41;100.00
52735;BME280;38631;47.572;10.704;2024-01-07T03:58:40;91621.28;;;0.33;100.00
52735;BME280;38631;47.572;10.704;2024-01-07T04:01:05;91626.72;;;0.47;100.00
52735;BME280;38631;47.572;10.704;2024-01-07T04:03:31;91628.56;;;0.41;100.00
52735;BME280;38631;47.572;10.704;2024-01-07T04:05:56;91635.09;;;0.44;100.00
52735;BME280;38631;47.572;10.704;2024-01-07T04:08:22;91624.09;;;0.47;100.00
52735;BME280;38631;47.572;10.704;2024-01-07T04:10:48;91634.31;;;0.43;100.00
52735;BME280;38631;47.572;10.704;2024-01-07T04:13:14;91628.03;;;0.39;100.00
52735;BME280;38631;47.572;10.704;2024-01-07T04:15:40;91640.84;;;0.46;100.00
52735;BME280;38631;47.572;10.704;2024-01-07T04:18:06;91631.41;;;0.45;100.00
52735;BME280;38631;47.572;10.704;2024-01-07T04:20:32;91627.28;;;0.34;100.00
52735;BME280;38631;47.572;10.704;2024-01-07T04:22:58;91642.38;;;0.47;100.00
52735;BME280;38631;47.572;10.704;2024-01-07T04:25:23;91639.78;;;0.42;100.00
52735;BME280;38631;47.572;10.704;2024-01-07T04:27:49;91643.69;;;0.50;100.00
52735;BME280;38631;47.572;10.704;2024-01-07T04:30:14;91641.88;;;0.45;100.00
52735;BME280;38631;47.572;10.704;2024-01-07T04:32:40;91640.56;;;0.42;100.00
52735;BME280;38631;47.572;10.704;2024-01-07T04:35:07;91647.09;;;0.45;100.00
52735;BME280;38631;47.572;10.704;2024-01-07T04:37:32;91642.94;;;0.39;100.00
52735;BME280;38631;47.572;10.704;2024-01-07T04:39:58;91650.53;;;0.35;100.00
52735;BME280;38631;47.572;10.704;2024-01-07T04:42:24;91654.91;;;0.45;100.00
52735;BME280;38631;47.572;10.704;2024-01-07T04:47:32;91654.44;;;0.38;100.00
52735;BME280;38631;47.572;10.704;2024-01-07T04:50:17;91656.75;;;0.39;100.00
52735;BME280;38631;47.572;10.704;2024-01-07T04:52:46;91652.59;;;0.38;100.00
52735;BME280;38631;47.572;10.704;2024-01-07T04:55:12;91653.91;;;0.41;100.00
52735;BME280;38631;47.572;10.704;2024-01-07T04:57:38;91653.38;;;0.39;100.00
52735;BME280;38631;47.572;10.704;2024-01-07T05:00:04;91655.19;;;0.43;100.00
52735;BME280;38631;47.572;10.704;2024-01-07T05:02:29;91659.63;;;0.48;100.00
52735;BME280;38631;47.572;10.704;2024-01-07T05:04:55;91657.81;;;0.38;100.00
52735;BME280;38631;47.572;10.704;2024-01-07T05:07:23;91648.69;;;0.36;100.00
52735;BME280;38631;47.572;10.704;2024-01-07T05:09:48;91669.28;;;0.42;100.00
52735;BME280;38631;47.572;10.704;2024-01-07T05:12:14;91668.00;;;0.40;100.00
52735;BME280;38631;47.572;10.704;2024-01-07T05:14:40;91660.66;;;0.47;100.00
52735;BME280;38631;47.572;10.704;2024-01-07T05:17:44;91653.41;;;0.29;100.00
52735;BME280;38631;47.572;10.704;2024-01-07T05:20:10;91657.28;;;0.41;100.00
52735;BME280;38631;47.572;10.704;2024-01-07T05:22:36;91667.47;;;0.43;100.00
52735;BME280;38631;47.572;10.704;2024-01-07T05:25:01;91664.34;;;0.36;100.00
52735;BME280;38631;47.572;10.704;2024-01-07T05:27:27;91653.91;;;0.36;100.00
52735;BME280;38631;47.572;10.704;2024-01-07T05:29:53;91666.97;;;0.36;100.00
52735;BME280;38631;47.572;10.704;2024-01-07T05:32:20;91662.75;;;0.40;100.00
52735;BME280;38631;47.572;10.704;2024-01-07T05:34:46;91666.19;;;0.40;100.00
52735;BME280;38631;47.572;10.704;2024-01-07T05:37:11;91665.38;;;0.50;100.00
52735;BME280;38631;47.572;10.704;2024-01-07T05:39:36;91657.53;;;0.55;100.00
52735;BME280;38631;47.572;10.704;2024-01-07T05:42:02;91652.31;;;0.35;100.00
52735;BME280;38631;47.572;10.704;2024-01-07T05:44:27;91657.53;;;0.40;100.00
52735;BME280;38631;47.572;10.704;2024-01-07T05:46:52;91674.03;;;0.35;100.00
52735;BME280;38631;47.572;10.704;2024-01-07T05:49:18;91663.81;;;0.39;100.00
52735;BME280;38631;47.572;10.704;2024-01-07T05:51:43;91666.44;;;0.34;100.00
52735;BME280;38631;47.572;10.704;2024-01-07T05:54:09;91661.22;;;0.34;100.00
52735;BME280;38631;47.572;10.704;2024-01-07T05:56:41;91683.94;;;0.38;100.00
52735;BME280;38631;47.572;10.704;2024-01-07T05:59:07;91677.41;;;0.36;100.00
52735;BME280;38631;47.572;10.704;2024-01-07T06:01:33;91666.69;;;0.27;100.00
52735;BME280;38631;47.572;10.704;2024-01-07T06:03:58;91669.59;;;0.31;100.00
52735;BME280;38631;47.572;10.704;2024-01-07T06:06:24;91680.81;;;0.31;100.00
52735;BME280;38631;47.572;10.704;2024-01-07T06:08:49;91678.44;;;0.35;100.00
52735;BME280;38631;47.572;10.704;2024-01-07T06:11:16;91677.66;;;0.34;100.00
52735;BME280;38631;47.572;10.704;2024-01-07T06:13:47;91672.19;;;0.31;100.00
52735;BME280;38631;47.572;10.704;2024-01-07T06:16:12;91668.28;;;0.33;100.00
52735;BME280;38631;47.572;10.704;2024-01-07T06:18:38;91683.16;;;0.38;100.00
52735;BME280;38631;47.572;10.704;2024-01-07T06:21:04;91672.72;;;0.38;100.00
52735;BME280;38631;47.572;10.704;2024-01-07T06:23:32;91677.94;;;0.33;100.00
52735;BME280;38631;47.572;10.704;2024-01-07T06:25:57;91669.06;;;0.29;100.00
52735;BME280;38631;47.572;10.704;2024-01-07T06:28:23;91675.81;;;0.35;100.00
52735;BME280;38631;47.572;10.704;2024-01-07T06:30:48;91682.91;;;0.24;100.00
52735;BME280;38631;47.572;10.704;2024-01-07T06:33:14;91688.13;;;0.19;100.00
52735;BME280;38631;47.572;10.704;2024-01-07T06:35:40;91693.09;;;0.31;100.00
52735;BME280;38631;47.572;10.704;2024-01-07T06:38:06;91681.06;;;0.35;100.00
52735;BME280;38631;47.572;10.704;2024-01-07T06:40:31;91694.63;;;0.32;100.00
52735;BME280;38631;47.572;10.704;2024-01-07T06:42:58;91692.03;;;0.32;100.00
52735;BME280;38631;47.572;10.704;2024-01-07T06:45:23;91680.81;;;0.26;100.00
52735;BME280;38631;47.572;10.704;2024-01-07T06:47:49;91695.69;;;0.41;100.00
52735;BME280;38631;47.572;10.704;2024-01-07T06:50:14;91705.84;;;0.48;100.00
52735;BME280;38631;47.572;10.704;2024-01-07T06:52:39;91695.16;;;0.39;100.00
52735;BME280;38631;47.572;10.704;2024-01-07T06:55:06;91704.81;;;0.38;100.00
52735;BME280;38631;47.572;10.704;2024-01-07T06:57:31;91701.94;;;0.50;100.00
52735;BME280;38631;47.572;10.704;2024-01-07T06:59:57;91706.91;;;0.47;100.00
52735;BME280;38631;47.572;10.704;2024-01-07T07:02:22;91705.63;;;0.29;100.00
52735;BME280;38631;47.572;10.704;2024-01-07T07:04:47;91702.47;;;0.42;100.00
52735;BME280;38631;47.572;10.704;2024-01-07T07:07:13;91711.06;;;0.48;100.00
52735;BME280;38631;47.572;10.704;2024-01-07T07:09:39;91706.91;;;0.36;100.00
52735;BME280;38631;47.572;10.704;2024-01-07T07:12:04;91717.09;;;0.38;100.00
52735;BME280;38631;47.572;10.704;2024-01-07T07:14:31;91717.34;;;0.41;100.00
52735;BME280;38631;47.572;10.704;2024-01-07T07:16:56;91723.88;;;0.34;100.00
52735;BME280;38631;47.572;10.704;2024-01-07T07:19:21;91721.78;;;0.46;100.00
52735;BME280;38631;47.572;10.704;2024-01-07T07:21:47;91726.22;;;0.46;100.00
52735;BME280;38631;47.572;10.704;2024-01-07T07:24:12;91716.31;;;0.32;100.00
52735;BME280;38631;47.572;10.704;2024-01-07T07:26:37;91724.94;;;0.33;100.00
52735;BME280;38631;47.572;10.704;2024-01-07T07:29:07;91720.50;;;0.23;100.00
52735;BME280;38631;47.572;10.704;2024-01-07T07:31:32;91734.09;;;0.30;100.00
52735;BME280;38631;47.572;10.704;2024-01-07T07:33:57;91733.25;;;0.40;100.00
52735;BME280;38631;47.572;10.704;2024-01-07T07:36:23;91731.19;;;0.27;100.00
52735;BME280;38631;47.572;10.704;2024-01-07T07:38:49;91734.06;;;0.40;100.00
52735;BME280;38631;47.572;10.704;2024-01-07T07:41:14;91742.69;;;0.36;100.00
52735;BME280;38631;47.572;10.704;2024-01-07T07:43:39;91742.16;;;0.44;100.00
52735;BME280;38631;47.572;10.704;2024-01-07T07:46:05;91745.81;;;0.48;100.00
52735;BME280;38631;47.572;10.704;2024-01-07T07:48:30;91748.44;;;0.48;100.00
52735;BME280;38631;47.572;10.704;2024-01-07T07:50:56;91752.34;;;0.40;100.00
52735;BME280;38631;47.572;10.704;2024-01-07T07:53:21;91745.31;;;0.31;100.00
52735;BME280;38631;47.572;10.704;2024-01-07T07:55:46;91746.06;;;0.31;100.00
52735;BME280;38631;47.572;10.704;2024-01-07T07:58:12;91749.47;;;0.42;100.00
52735;BME280;38631;47.572;10.704;2024-01-07T08:00:37;91757.28;;;0.42;100.00
52735;BME280;38631;47.572;10.704;2024-01-07T08:03:03;91749.75;;;0.46;100.00
52735;BME280;38631;47.572;10.704;2024-01-07T08:05:29;91747.38;;;0.49;100.00
52735;BME280;38631;47.572;10.704;2024-01-07T08:07:54;91753.91;;;0.41;100.00
52735;BME280;38631;47.572;10.704;2024-01-07T08:10:21;91756.78;;;0.40;100.00
52735;BME280;38631;47.572;10.704;2024-01-07T08:12:48;91751.81;;;0.38;100.00
52735;BME280;38631;47.572;10.704;2024-01-07T08:15:14;91752.06;;;0.27;100.00
52735;BME280;38631;47.572;10.704;2024-01-07T08:17:40;91756.78;;;0.35;100.00
52735;BME280;38631;47.572;10.704;2024-01-07T08:20:06;91764.34;;;0.52;100.00
52735;BME280;38631;47.572;10.704;2024-01-07T08:22:31;91770.88;;;0.49;100.00
52735;BME280;38631;47.572;10.704;2024-01-07T08:24:56;91764.09;;;0.43;100.00
52735;BME280;38631;47.572;10.704;2024-01-07T08:27:22;91772.19;;;0.52;100.00
52735;BME280;38631;47.572;10.704;2024-01-07T08:29:47;91771.41;;;0.46;100.00
52735;BME280;38631;47.572;10.704;2024-01-07T08:32:13;91768.25;;;0.49;100.00
52735;BME280;38631;47.572;10.704;2024-01-07T08:34:38;91774.25;;;0.60;100.00
52735;BME280;38631;47.572;10.704;2024-01-07T08:37:05;91766.72;;;0.38;100.00
52735;BME280;38631;47.572;10.704;2024-01-07T08:39:30;91768.28;;;0.39;100.00
52735;BME280;38631;47.572;10.704;2024-01-07T08:41:56;91773.75;;;0.53;100.00
52735;BME280;38631;47.572;10.704;2024-01-07T08:44:21;91772.97;;;0.47;100.00
52735;BME280;38631;47.572;10.704;2024-01-07T08:46:46;91777.66;;;0.45;100.00
52735;BME280;38631;47.572;10.704;2024-01-07T08:49:12;91786.31;;;0.35;100.00
52735;BME280;38631;47.572;10.704;2024-01-07T08:51:39;91775.03;;;0.35;100.00
52735;BME280;38631;47.572;10.704;2024-01-07T08:54:04;91780.28;;;0.35;100.00
52735;BME280;38631;47.572;10.704;2024-01-07T08:56:29;91794.38;;;0.39;100.00
52735;BME280;38631;47.572;10.704;2024-01-07T08:58:55;91795.44;;;0.33;100.00
52735;BME280;38631;47.572;10.704;2024-01-07T09:01:20;91793.31;;;0.45;100.00
52735;BME280;38631;47.572;10.704;2024-01-07T09:03:46;91791.00;;;0.49;100.00
52735;BME280;38631;47.572;10.704;2024-01-07T09:06:11;91799.34;;;0.56;100.00
52735;BME280;38631;47.572;10.704;2024-01-07T09:08:36;91795.97;;;0.50;100.00
52735;BME280;38631;47.572;10.704;2024-01-07T09:11:05;91803.28;;;0.38;100.00
52735;BME280;38631;47.572;10.704;2024-01-07T09:13:32;91814.50;;;0.38;100.00
52735;BME280;38631;47.572;10.704;2024-01-07T09:15:57;91813.19;;;0.36;100.00
52735;BME280;38631;47.572;10.704;2024-01-07T09:18:23;91813.19;;;0.26;100.00
52735;BME280;38631;47.572;10.704;2024-01-07T09:20:48;91814.47;;;0.23;100.00
52735;BME280;38631;47.572;10.704;2024-01-07T09:23:14;91817.88;;;0.39;100.00
52735;BME280;38631;47.572;10.704;2024-01-07T09:25:41;91827.56;;;0.54;100.00
52735;BME280;38631;47.572;10.704;2024-01-07T09:28:07;91826.50;;;0.50;100.00
52735;BME280;38631;47.572;10.704;2024-01-07T09:30:32;91825.47;;;0.61;100.00
52735;BME280;38631;47.572;10.704;2024-01-07T09:32:58;91831.47;;;0.61;100.00
52735;BME280;38631;47.572;10.704;2024-01-07T09:35:24;91821.28;;;0.60;100.00
52735;BME280;38631;47.572;10.704;2024-01-07T09:37:50;91821.81;;;0.52;100.00
52735;BME280;38631;47.572;10.704;2024-01-07T09:40:19;91826.00;;;0.53;100.00
52735;BME280;38631;47.572;10.704;2024-01-07T09:42:45;91824.16;;;0.38;100.00
52735;BME280;38631;47.572;10.704;2024-01-07T09:45:12;91822.56;;;0.37;100.00
52735;BME280;38631;47.572;10.704;2024-01-07T09:47:42;91826.50;;;0.39;100.00
52735;BME280;38631;47.572;10.704;2024-01-07T09:50:10;91834.03;;;0.05;100.00
52735;BME280;38631;47.572;10.704;2024-01-07T09:52:38;91834.56;;;0.22;100.00
52735;BME280;38631;47.572;10.704;2024-01-07T09:55:03;91823.06;;;0.13;100.00
52735;BME280;38631;47.572;10.704;2024-01-07T09:57:34;91830.69;;;0.30;100.00
52735;BME280;38631;47.572;10.704;2024-01-07T10:00:00;91818.66;;;0.19;100.00
52735;BME280;38631;47.572;10.704;2024-01-07T10:02:26;91838.44;;;0.10;100.00
52735;BME280;38631;47.572;10.704;2024-01-07T10:04:51;91831.91;;;0.07;100.00
52735;BME280;38631;47.572;10.704;2024-01-07T10:07:17;91827.25;;;0.19;100.00
52735;BME280;38631;47.572;10.704;2024-01-07T10:09:43;91821.44;;;-0.08;100.00
52735;BME280;38631;47.572;10.704;2024-01-07T10:12:08;91836.13;;;0.08;100.00
52735;BME280;38631;47.572;10.704;2024-01-07T10:14:34;91834.31;;;0.19;100.00
52735;BME280;38631;47.572;10.704;2024-01-07T10:17:00;91838.25;;;0.32;100.00
52735;BME280;38631;47.572;10.704;2024-01-07T10:19:25;91823.09;;;0.24;100.00
52735;BME280;38631;47.572;10.704;2024-01-07T10:22:01;91835.63;;;0.32;100.00
52735;BME280;38631;47.572;10.704;2024-01-07T10:24:35;91826.50;;;0.29;100.00
52735;BME280;38631;47.572;10.704;2024-01-07T10:27:03;91839.56;;;0.45;100.00
52735;BME280;38631;47.572;10.704;2024-01-07T10:29:28;91839.00;;;0.32;100.00
52735;BME280;38631;47.572;10.704;2024-01-07T10:31:57;91833.81;;;0.42;100.00
52735;BME280;38631;47.572;10.704;2024-01-07T10:34:23;91843.19;;;0.23;100.00
52735;BME280;38631;47.572;10.704;2024-01-07T10:36:53;91836.13;;;0.18;100.00
52735;BME280;38631;47.572;10.704;2024-01-07T10:39:19;91839.25;;;0.10;100.00
52735;BME280;38631;47.572;10.704;2024-01-07T10:41:46;91828.00;;;0.10;100.00
52735;BME280;38631;47.572;10.704;2024-01-07T10:44:13;91837.44;;;0.11;100.00
52735;BME280;38631;47.572;10.704;2024-01-07T10:46:39;91838.72;;;0.03;100.00
52735;BME280;38631;47.572;10.704;2024-01-07T10:49:20;91840.28;;;0.04;100.00
52735;BME280;38631;47.572;10.704;2024-01-07T10:54:28;91842.38;;;0.07;100.00
52735;BME280;38631;47.572;10.704;2024-01-07T10:56:57;91839.72;;;-0.03;100.00
52735;BME280;38631;47.572;10.704;2024-01-07T10:59:23;91831.66;;;0.04;100.00
52735;BME280;38631;47.572;10.704;2024-01-07T11:01:49;91833.53;;;0.13;100.00
52735;BME280;38631;47.572;10.704;2024-01-07T11:04:21;91840.31;;;0.30;100.00
52735;BME280;38631;47.572;10.704;2024-01-07T11:09:46;91839.50;;;0.09;100.00
52735;BME280;38631;47.572;10.704;2024-01-07T11:12:17;91841.59;;;0.12;100.00
52735;BME280;38631;47.572;10.704;2024-01-07T11:14:44;91838.72;;;-0.02;100.00
52735;BME280;38631;47.572;10.704;2024-01-07T11:20:06;91840.28;;;0.14;100.00
52735;BME280;38631;47.572;10.704;2024-01-07T11:22:32;91838.72;;;0.08;100.00
52735;BME280;38631;47.572;10.704;2024-01-07T11:25:01;91842.66;;;0.21;100.00
52735;BME280;38631;47.572;10.704;2024-01-07T11:27:30;91843.97;;;0.18;100.00
52735;BME280;38631;47.572;10.704;2024-01-07T11:29:58;91839.00;;;0.17;100.00
52735;BME280;38631;47.572;10.704;2024-01-07T11:32:24;91840.00;;;-0.10;100.00
52735;BME280;38631;47.572;10.704;2024-01-07T11:34:54;91841.81;;;-0.05;100.00
52735;BME280;38631;47.572;10.704;2024-01-07T11:37:21;91842.84;;;-0.06;100.00
52735;BME280;38631;47.572;10.704;2024-01-07T11:39:48;91838.72;;;-0.02;100.00
52735;BME280;38631;47.572;10.704;2024-01-07T11:42:15;91843.97;;;0.13;100.00
52735;BME280;38631;47.572;10.704;2024-01-07T11:49:51;91830.34;;;0.01;100.00
52735;BME280;38631;47.572;10.704;2024-01-07T11:52:17;91839.00;;;0.17;100.00
52735;BME280;38631;47.572;10.704;2024-01-07T11:54:42;91837.41;;;-0.05;100.00
52735;BME280;38631;47.572;10.704;2024-01-07T11:57:08;91842.28;;;-0.18;100.00
52735;BME280;38631;47.572;10.704;2024-01-07T11:59:34;91833.97;;;-0.10;100.00
52735;BME280;38631;47.572;10.704;2024-01-07T12:02:00;91833.19;;;-0.16;100.00
52735;BME280;38631;47.572;10.704;2024-01-07T12:04:25;91841.81;;;-0.05;100.00
52735;BME280;38631;47.572;10.704;2024-01-07T12:06:51;91839.47;;;-0.12;100.00
52735;BME280;38631;47.572;10.704;2024-01-07T12:09:16;91842.84;;;-0.11;100.00
52735;BME280;38631;47.572;10.704;2024-01-07T12:11:42;91838.72;;;0.03;100.00
52735;BME280;38631;47.572;10.704;2024-01-07T12:14:09;91831.38;;;-0.05;100.00
52735;BME280;38631;47.572;10.704;2024-01-07T12:16:36;91844.13;;;-0.14;100.00
52735;BME280;38631;47.572;10.704;2024-01-07T12:19:01;91854.84;;;-0.10;100.00
52735;BME280;38631;47.572;10.704;2024-01-07T12:21:26;91844.91;;;-0.18;100.00
52735;BME280;38631;47.572;10.704;2024-01-07T12:23:53;91845.22;;;-0.05;100.00
52735;BME280;38631;47.572;10.704;2024-01-07T12:26:19;91832.94;;;-0.04;100.00
52735;BME280;38631;47.572;10.704;2024-01-07T12:28:45;91843.91;;;-0.07;100.00
52735;BME280;38631;47.572;10.704;2024-01-07T12:31:17;91843.66;;;-0.01;100.00
52735;BME280;38631;47.572;10.704;2024-01-07T12:33:42;91846.78;;;0.02;100.00
52735;BME280;38631;47.572;10.704;2024-01-07T12:36:07;91840.50;;;-0.08;100.00
52735;BME280;38631;47.572;10.704;2024-01-07T12:38:33;91845.19;;;-0.20;100.00
52735;BME280;38631;47.572;10.704;2024-01-07T12:41:01;91849.91;;;-0.02;100.00
52735;BME280;38631;47.572;10.704;2024-01-07T12:45:59;91852.53;;;-0.02;100.00
52735;BME280;38631;47.572;10.704;2024-01-07T12:48:30;91845.78;;;0.13;100.00
52735;BME280;38631;47.572;10.704;2024-01-07T12:50:56;91853.63;;;0.18;100.00
52735;BME280;38631;47.572;10.704;2024-01-07T12:53:21;91853.09;;;0.21;100.00
52735;BME280;38631;47.572;10.704;2024-01-07T12:55:47;91849.16;;;0.08;100.00
52735;BME280;38631;47.572;10.704;2024-01-07T12:58:12;91854.41;;;0.18;100.00
52735;BME280;38631;47.572;10.704;2024-01-07T13:00:37;91854.84;;;-0.10;100.00
52735;BME280;38631;47.572;10.704;2024-01-07T13:03:04;91852.28;;;0.00;100.00
52735;BME280;38631;47.572;10.704;2024-01-07T13:05:32;91858.25;;;-0.10;100.00
52735;BME280;38631;47.572;10.704;2024-01-07T13:07:57;91868.72;;;-0.05;100.00
52735;BME280;38631;47.572;10.704;2024-01-07T13:10:22;91871.53;;;-0.16;100.00
52735;BME280;38631;47.572;10.704;2024-01-07T13:12:49;91863.72;;;-0.06;100.00
52735;BME280;38631;47.572;10.704;2024-01-07T13:15:14;91856.91;;;-0.23;100.00
52735;BME280;38631;47.572;10.704;2024-01-07T13:17:39;91872.34;;;-0.06;100.00
52735;BME280;38631;47.572;10.704;2024-01-07T13:20:06;91867.63;;;-0.14;100.00